Date,TemperatureHighF,TemperatureAvgF,TemperatureLowF,DewpointHighF,DewpointAvgF,DewpointLowF,HumidityHigh,HumidityAvg,HumidityLow,PressureMaxIn,PressureMinIn,WindSpeedMaxMPH,WindSpeedAvgMPH,GustSpeedMaxMPH,PrecipitationSumIn
2012-1-1,72,48,31,45,38,30,99,76,25,30.09,30.02,1,0,7,0.00
2012-1-2,57,50,42,50,46,40,94,86,77,30.23,30.13,2,0,6,0.00
2012-1-3,65,50,34,49,43,33,99,80,52,30.27,30.18,2,0,5,0.00
2012-1-4,70,49,35,47,20,-100,99,54,33,30.31,30.20,3,-98,6,0.00
2012-1-5,68,55,37,49,42,34,98,66,35,30.22,30.06,4,1,7,0.00
2012-1-6,56,43,31,43,38,30,99,84,60,30.10,30.03,3,0,7,0.01
2012-1-7,68,54,37,41,28,15,97,45,17,30.17,30.07,8,1,17,0.00
2012-1-8,66,52,36,40,32,21,77,48,29,30.14,30.09,0,0,4,0.00
2012-1-9,64,46,30,40,35,28,92,70,40,30.16,30.08,1,0,7,0.00
2012-1-10,64,50,31,44,37,29,96,66,39,30.08,30.00,3,0,6,0.00
2012-1-11,69,50,31,43,36,29,92,66,31,30.04,29.93,1,0,5,0.00
2012-1-12,69,52,30,39,35,28,91,58,27,30.02,29.96,3,0,6,0.01
2012-1-13,69,50,29,40,32,25,86,57,20,30.13,30.06,2,0,11,0.00
2012-1-14,68,50,29,38,33,24,82,57,30,30.10,30.00,1,0,5,0.00
2012-1-15,54,44,32,38,34,29,96,70,46,29.99,29.88,2,1,12,0.00
2012-1-16,52,40,22,24,20,13,89,50,21,30.20,30.13,3,0,7,0.00
2012-1-17,52,38,21,33,28,19,95,71,46,30.31,30.22,2,0,7,0.00
2012-1-18,52,45,32,42,38,31,96,79,65,30.30,30.20,5,1,11,0.00
2012-1-19,48,47,45,47,46,44,97,97,96,30.09,29.93,1,0,7,0.49
2012-1-20,56,54,52,55,53,51,99,97,97,29.90,29.60,4,0,9,2.09
2012-1-21,52,46,38,44,41,36,96,82,65,30.03,29.75,7,1,16,0.05
2012-1-22,50,46,42,49,45,41,99,97,95,30.03,29.78,4,1,14,0.82
2012-1-23,56,49,40,49,45,39,97,87,74,29.94,29.62,2,0,6,0.00
2012-1-24,59,51,40,49,45,40,99,83,63,30.29,30.17,3,0,6,0.00
2012-1-25,64,57,46,56,52,46,99,85,71,30.35,30.24,3,0,6,0.00
2012-1-26,65,58,53,57,54,53,99,88,67,30.24,30.15,3,1,11,0.01
2012-1-27,69,45,31,40,30,19,91,65,15,30.20,30.13,2,0,7,0.00
2012-1-28,66,55,38,42,37,33,87,56,31,30.24,30.15,4,1,7,0.00
2012-1-29,67,52,31,48,40,29,96,68,40,30.18,30.06,2,0,8,0.00
2012-1-30,60,49,37,47,42,35,97,78,59,30.00,29.92,4,0,7,0.00
2012-1-31,56,47,40,47,44,39,99,90,72,30.07,29.99,3,1,11,0.00
2012-2-1,60,52,45,50,47,43,99,85,58,30.18,30.10,3,0,7,0.00
2012-2-2,74,56,35,51,34,22,99,55,15,30.09,29.88,4,0,10,0.01
2012-2-3,67,50,32,41,31,22,91,58,19,29.96,29.91,4,0,8,0.00
2012-2-4,67,53,36,42,34,31,84,54,27,29.99,29.96,4,0,8,0.00
2012-2-5,67,53,34,45,37,29,90,60,26,30.02,29.91,3,0,6,0.00
2012-2-6,68,58,42,36,34,31,72,42,28,29.84,29.68,8,0,11,0.00
2012-2-7,52,50,48,51,49,47,98,97,95,29.97,29.72,0,0,2,0.24
2012-2-8,62,49,38,54,46,37,100,90,63,30.15,30.10,2,0,5,0.00
2012-2-9,73,57,39,53,48,39,100,75,43,30.18,30.06,4,0,7,0.00
2012-2-10,56,51,44,54,50,44,99,96,89,30.10,29.99,2,0,8,0.09
2012-2-11,61,53,45,52,48,43,99,85,65,29.98,29.89,4,1,9,0.00
2012-2-12,56,48,33,46,42,32,99,82,62,29.97,29.89,5,1,11,0.05
2012-2-13,56,47,40,43,41,37,96,80,60,29.88,29.79,5,1,12,0.01
2012-2-14,61,48,31,43,38,30,98,70,44,30.00,29.92,4,1,10,0.00
2012-2-15,61,49,32,34,26,17,95,47,20,30.07,29.99,5,1,12,0.00
2012-2-16,68,56,34,43,32,22,81,43,20,30.16,30.09,4,0,13,0.00
2012-2-17,67,54,36,52,45,34,98,75,50,30.17,30.07,5,0,10,0.00
2012-2-18,60,53,44,47,40,35,95,62,39,30.09,30.01,5,2,17,0.00
2012-2-19,58,48,33,38,33,23,95,60,27,30.05,29.93,5,1,13,0.00
2012-2-20,57,49,44,49,40,-100,97,79,66,30.10,30.04,3,-35,6,0.00
2012-2-21,71,58,38,57,48,37,99,73,49,30.21,30.15,2,0,7,0.00
2012-2-22,77,64,40,53,43,34,100,54,22,30.21,30.05,6,1,13,0.01
2012-2-23,79,65,40,41,30,15,96,35,10,30.01,29.91,7,2,18,0.00
2012-2-24,74,60,39,42,37,29,81,46,20,30.05,29.94,5,2,13,0.00
2012-2-25,59,52,40,34,31,28,77,47,33,30.24,30.14,5,2,13,0.00
2012-2-26,58,46,25,33,28,23,96,55,27,30.00,29.77,4,1,10,0.00
2012-2-27,56,46,25,34,32,24,97,60,36,29.77,29.69,5,1,12,0.00
2012-2-28,50,42,28,44,37,27,97,83,56,30.10,29.99,6,2,12,0.01
2012-2-29,49,44,40,43,41,38,96,87,73,30.09,29.93,5,1,15,0.96
2012-3-1,56,48,38,49,42,35,98,81,53,30.13,30.05,5,1,16,0.22
2012-3-2,69,54,28,44,31,20,98,51,19,30.26,30.19,4,1,9,0.02
2012-3-3,71,58,33,47,43,32,99,62,37,30.25,30.16,3,0,8,0.00
2012-3-4,75,62,38,51,47,37,99,61,40,30.13,29.99,3,1,11,0.00
2012-3-5,72,58,38,49,42,35,100,61,28,30.00,29.89,6,1,12,0.00
2012-3-6,58,49,40,31,26,19,70,43,22,29.94,29.87,8,3,20,0.00
2012-3-7,70,56,32,33,19,10,69,29,12,30.08,30.02,7,2,17,0.00
2012-3-8,70,57,30,43,33,27,88,46,23,30.22,30.15,6,1,11,0.00
2012-3-9,72,60,37,41,36,30,96,47,21,30.23,30.08,6,1,11,0.00
2012-3-10,59,51,34,47,44,33,96,75,60,30.00,29.88,6,2,16,0.00
2012-3-11,56,49,41,49,44,38,97,82,54,29.96,29.90,6,1,18,0.13
2012-3-12,55,48,34,42,39,34,99,72,55,29.93,29.83,4,1,13,0.00
2012-3-13,53,52,49,52,50,48,97,96,96,29.84,29.75,6,3,18,2.04
2012-3-14,55,26,52,54,-25,-100,98,48,97,29.98,29.89,2,-507,7,0.19
2012-3-15,57,54,51,54,52,50,98,93,86,30.06,29.96,3,0,11,0.05
2012-3-16,55,52,49,55,51,48,99,97,95,29.85,29.63,6,1,17,1.25
2012-3-17,54,45,35,42,37,31,99,77,48,29.52,29.40,5,1,16,0.00
2012-3-18,52,46,38,35,31,25,84,58,37,29.74,29.61,5,2,18,0.00
2012-3-19,54,46,31,40,34,30,96,66,43,29.99,29.88,3,1,10,0.00
2012-3-20,56,50,43,49,40,-100,89,75,65,30.11,30.03,2,0,6,0.00
2012-3-21,65,59,45,53,50,44,97,75,53,30.04,29.89,5,1,11,0.00
2012-3-22,60,50,44,46,37,-100,97,67,35,29.89,29.81,6,-11,13,0.02
2012-3-23,57,46,31,43,36,30,99,70,41,29.98,29.86,5,1,13,0.00
2012-3-24,46,43,38,44,41,37,96,94,89,29.81,29.73,1,0,5,0.54
2012-3-25,57,48,40,43,41,39,98,77,57,29.78,29.71,2,0,8,0.01
2012-3-26,53,47,31,44,39,31,99,77,58,29.98,29.90,4,1,11,0.00
2012-3-27,54,50,47,53,48,45,97,95,89,29.83,29.75,6,2,19,1.55
2012-3-28,62,55,47,51,44,39,96,69,45,30.01,29.90,6,1,14,0.00
2012-3-29,55,52,45,51,50,45,99,89,76,30.03,29.97,4,0,10,0.02
2012-3-30,56,54,53,55,53,51,99,97,94,29.95,29.83,3,0,11,0.07
2012-3-31,54,49,43,52,44,41,96,84,63,29.78,29.59,8,2,18,0.66
2012-4-1,60,52,38,40,37,34,91,59,38,30.17,30.09,4,1,13,0.00
2012-4-2,62,51,34,46,40,34,99,68,39,30.11,29.97,4,1,11,0.00
2012-4-3,57,48,37,50,44,36,99,87,64,30.01,29.90,5,1,11,0.03
2012-4-4,58,47,32,41,33,28,99,63,31,30.10,30.03,5,2,14,0.00
2012-4-5,53,42,28,33,31,27,96,69,37,30.03,30.00,3,1,12,0.00
2012-4-6,60,50,28,36,33,27,98,57,35,30.17,30.08,7,1,13,0.00
2012-4-7,67,57,32,44,36,31,96,50,27,30.03,29.93,5,1,12,0.00
2012-4-8,66,55,32,45,38,29,97,56,32,29.96,29.92,7,1,13,0.00
2012-4-9,72,59,36,45,32,13,96,44,11,29.89,29.73,6,1,13,0.00
2012-4-10,54,52,50,52,51,49,98,95,92,29.79,29.72,1,0,8,0.38
2012-4-11,55,51,44,51,46,43,99,84,66,29.84,29.71,5,2,17,0.24
2012-4-12,56,51,43,49,43,37,99,76,49,29.91,29.76,8,2,17,0.10
2012-4-13,56,46,40,47,30,-100,97,67,53,29.73,29.61,8,-71,17,0.03
2012-4-14,67,55,35,47,40,33,95,60,36,29.95,29.81,5,2,11,0.00
2012-4-15,65,57,38,51,48,37,100,73,56,30.13,30.07,6,2,13,0.00
2012-4-16,67,54,38,49,44,34,99,71,33,30.14,30.09,5,1,12,0.00
2012-4-17,64,53,40,53,48,39,99,83,68,30.08,29.99,6,2,12,0.00
2012-4-18,71,63,44,53,49,43,98,62,50,30.06,30.00,7,2,17,0.00
2012-4-19,79,62,46,62,45,-100,99,66,50,30.09,29.99,5,-67,8,0.00
2012-4-20,88,76,52,61,56,51,99,55,28,29.98,29.88,5,1,11,0.00
2012-4-21,88,76,50,61,57,48,93,55,35,29.87,29.78,4,1,8,0.00
2012-4-22,81,68,51,61,47,-100,96,55,47,29.82,29.78,6,-60,12,0.00
2012-4-23,60,55,51,53,51,49,96,87,73,29.89,29.83,6,1,13,0.03
2012-4-24,66,60,55,57,55,52,98,83,72,29.97,29.88,6,1,11,0.09
2012-4-25,66,61,54,55,53,52,96,76,64,29.85,29.72,3,1,10,0.00
2012-4-26,62,55,44,50,42,36,95,66,39,30.10,29.75,9,2,19,0.00
2012-4-27,70,58,35,44,40,34,99,57,32,30.15,30.04,5,1,11,0.00
2012-4-28,78,61,43,56,46,-100,97,65,45,30.00,29.80,2,0,7,0.00
2012-4-29,69,57,45,54,50,44,99,80,58,29.83,29.81,3,0,7,0.00
2012-4-30,82,72,48,53,50,46,98,48,34,29.88,29.81,5,2,18,0.00
2012-5-1,74,60,39,48,43,38,99,60,32,29.82,29.75,6,2,13,0.00
2012-5-2,67,57,35,47,43,34,99,61,43,29.85,29.79,7,2,16,0.00
2012-5-3,56,52,46,55,51,44,97,96,94,29.96,29.85,5,1,12,0.05
2012-5-4,67,57,45,46,44,42,93,63,41,30.09,30.01,7,2,13,0.00
2012-5-5,78,65,37,45,36,22,99,44,13,30.13,29.98,3,1,10,0.00
2012-5-6,85,74,45,51,39,32,83,33,16,29.99,29.92,3,0,9,0.00
2012-5-7,87,76,43,48,40,35,95,37,16,29.93,29.87,5,1,11,0.00
2012-5-8,87,74,45,52,47,42,92,43,23,29.87,29.82,5,1,13,0.00
2012-5-9,82,71,45,57,52,43,98,54,31,29.85,29.78,6,1,12,0.00
2012-5-10,81,70,40,50,44,39,97,45,26,29.82,29.75,4,1,11,0.00
2012-5-11,85,72,43,51,44,35,95,42,18,29.85,29.79,5,1,12,0.00
2012-5-12,83,70,43,56,51,41,95,54,28,29.95,29.91,4,1,8,0.00
2012-5-13,64,55,46,51,48,45,98,78,61,30.00,29.93,7,1,13,0.00
2012-5-14,67,60,45,52,49,44,98,68,55,30.00,29.95,5,2,13,0.00
2012-5-15,71,63,44,55,51,43,99,67,54,29.95,29.88,6,2,12,0.00
2012-5-16,74,63,47,57,53,46,98,70,54,29.93,29.83,6,2,13,0.00
2012-5-17,74,60,47,51,47,45,97,66,35,29.80,29.72,5,1,22,0.00
2012-5-18,79,69,41,49,44,39,94,43,27,29.88,29.81,6,2,13,0.00
2012-5-19,81,69,40,52,46,38,94,47,27,29.89,29.84,5,1,10,0.00
2012-5-20,84,72,46,55,49,42,88,48,30,29.89,29.82,5,1,13,0.00
2012-5-21,72,64,43,56,52,41,97,66,52,29.96,29.92,7,2,14,0.00
2012-5-22,79,69,46,54,49,45,99,53,33,30.03,29.95,9,2,17,0.00
2012-5-23,74,66,51,47,45,42,84,49,32,29.95,29.83,7,2,17,0.00
2012-5-24,72,63,40,46,43,38,94,50,36,29.79,29.64,7,3,24,0.00
2012-5-25,67,58,46,50,41,37,72,54,35,29.67,29.61,6,1,17,0.01
2012-5-26,70,62,39,51,48,38,99,61,43,29.88,29.75,5,1,14,0.01
2012-5-27,69,62,47,53,50,46,96,66,53,30.03,29.98,7,2,14,0.00
2012-5-28,69,62,47,51,49,46,97,63,49,29.96,29.89,5,2,13,0.00
2012-5-29,74,64,39,54,49,38,98,63,46,29.96,29.92,6,1,12,0.00
2012-5-30,82,71,44,56,52,43,98,54,35,29.99,29.92,3,1,11,0.00
2012-5-31,86,69,47,57,52,45,96,60,30,29.92,29.77,3,0,8,0.00
2012-6-1,92,78,53,59,56,51,94,48,31,29.76,29.67,5,1,12,0.00
2012-6-2,86,78,57,60,52,37,89,45,21,29.81,29.77,9,2,18,0.00
2012-6-3,78,69,47,52,48,45,92,49,32,29.84,29.79,8,2,14,0.00
2012-6-4,63,57,54,55,50,44,96,79,59,29.92,29.80,6,2,19,0.05
2012-6-5,70,61,37,43,40,36,97,50,30,30.09,30.02,7,2,16,0.00
2012-6-6,77,66,39,47,42,37,97,46,26,30.00,29.86,5,1,13,0.00
2012-6-7,80,70,42,53,47,40,93,46,27,29.92,29.86,7,2,15,0.00
2012-6-8,76,65,44,47,42,36,95,48,25,29.90,29.81,8,2,20,0.00
2012-6-9,82,68,38,40,30,19,89,33,10,29.92,29.82,5,1,11,0.00
2012-6-10,91,79,47,45,38,31,67,27,12,29.81,29.78,5,1,12,0.00
2012-6-11,91,81,50,52,47,43,82,34,20,29.87,29.82,5,1,12,0.00
2012-6-12,90,79,49,55,52,45,88,41,27,29.88,29.80,12,2,20,0.00
2012-6-13,88,77,50,58,55,48,93,49,29,29.78,29.64,6,1,12,0.00
2012-6-14,89,77,48,54,49,40,91,41,24,29.70,29.66,5,1,13,0.00
2012-6-15,90,81,58,56,49,43,57,34,25,29.71,29.67,7,2,14,0.00
2012-6-16,100,87,55,58,50,-100,87,35,17,29.76,29.70,3,1,11,0.00
2012-6-17,79,73,57,56,54,51,83,52,43,29.82,29.73,6,2,13,0.00
2012-6-18,73,60,49,55,51,48,98,76,51,29.81,29.75,5,1,12,0.00
2012-6-19,73,73,73,51,51,51,46,46,46,29.75,29.75,0,0,0,0.00
2012-6-20,90,76,48,51,47,41,89,42,19,29.75,29.70,6,1,13,0.00
2012-6-21,67,59,47,52,50,45,96,71,56,29.80,29.73,8,3,19,0.00
2012-6-22,62,55,43,53,50,42,97,84,72,29.88,29.81,4,1,13,0.00
2012-6-23,66,59,42,48,46,41,98,63,46,29.82,29.76,7,2,19,0.00
2012-6-24,70,61,40,47,44,39,98,57,43,29.93,29.89,8,2,16,0.00
2012-6-25,68,61,38,50,47,37,97,62,46,29.98,29.93,8,3,16,0.00
2012-6-26,77,69,39,51,48,38,98,49,35,29.96,29.81,6,2,13,0.00
2012-6-27,81,73,43,47,42,39,92,38,22,29.81,29.79,6,1,13,0.00
2012-6-28,80,70,45,54,50,42,92,51,34,29.95,29.88,8,2,14,0.00
2012-6-29,74,67,47,57,55,46,98,67,54,30.00,29.93,8,2,13,0.00
2012-6-30,74,72,69,61,61,60,74,69,65,29.85,29.85,5,4,14,0.00
2012-7-1,78,68,58,61,59,57,96,76,56,29.87,29.78,5,1,11,0.01
2012-7-2,83,74,51,61,58,49,96,59,42,29.78,29.74,7,1,13,0.00
2012-7-4,81,72,49,57,54,47,92,54,41,29.75,29.72,7,1,11,0.00
2012-7-5,54,53,52,52,51,51,96,93,90,29.84,29.82,0,0,1,0.00
2012-7-6,76,76,76,49,49,49,38,38,38,29.87,29.87,2,2,5,0.00
2012-7-7,92,80,47,55,48,41,93,38,19,29.89,29.83,5,1,11,0.00
2012-7-8,85,73,45,54,48,40,87,45,24,29.91,29.87,7,2,12,0.00
2012-7-9,85,72,42,57,49,39,95,51,25,29.93,29.85,6,2,11,0.00
2012-7-10,93,82,47,58,51,43,94,40,19,29.84,29.75,6,1,12,0.00
2012-7-12,92,86,75,59,56,51,51,37,25,29.75,29.69,5,2,8,0.00
2012-7-13,77,66,47,54,52,44,94,61,44,29.78,29.75,10,2,14,0.00
2012-7-15,79,69,51,58,55,50,97,64,45,29.81,29.74,9,2,13,0.00
2012-7-16,68,57,49,53,51,48,96,81,57,29.79,29.73,5,1,14,0.01
2012-7-17,62,59,54,54,53,52,94,81,71,29.90,29.83,4,0,7,0.00
2012-7-18,72,61,45,55,52,44,98,74,54,29.93,29.87,5,1,11,0.00
2012-7-19,75,65,52,56,54,51,97,69,50,29.95,29.90,6,1,11,0.00
2012-7-20,90,76,47,57,53,46,98,51,27,29.98,29.89,10,2,12,0.00
2012-7-21,95,84,53,59,53,48,94,40,22,29.89,29.79,6,1,12,0.00
2012-7-22,94,82,51,59,53,45,90,40,19,29.81,29.75,5,1,11,0.00
2012-7-23,84,72,52,57,54,48,88,56,40,29.82,29.79,5,1,11,0.00
2012-7-24,74,61,52,54,52,50,94,74,49,29.88,29.83,5,0,7,0.00
2012-7-25,75,67,52,55,53,50,93,63,49,29.91,29.85,8,1,12,0.00
2012-7-26,72,62,50,54,52,49,97,72,52,29.91,29.84,7,2,14,0.00
2012-7-27,78,66,49,58,54,48,98,68,46,29.92,29.87,10,1,11,0.00
2012-7-28,86,73,44,56,53,43,98,53,32,29.93,29.87,7,2,11,0.00
2012-7-29,85,74,46,58,54,45,97,53,33,29.93,29.85,5,1,13,0.00
2012-7-30,92,80,49,60,54,47,96,46,26,29.88,29.79,5,1,11,0.00
2012-7-31,92,80,51,57,52,47,89,42,25,29.88,29.84,7,1,13,0.00
2012-8-1,86,75,47,57,52,44,95,50,27,29.94,29.87,5,1,14,0.00
2012-8-2,91,77,46,56,52,44,93,46,28,29.89,29.79,9,1,11,0.00
2012-8-3,83,69,48,57,54,47,96,62,41,29.79,29.72,7,2,11,0.00
2012-8-4,68,60,50,56,53,49,97,79,65,29.86,29.76,5,1,13,0.00
2012-8-5,73,66,56,59,57,55,97,75,61,29.97,29.91,6,2,13,0.00
2012-8-6,85,71,54,60,54,48,97,61,31,30.03,29.95,6,1,11,0.00
2012-8-7,90,79,50,54,50,45,97,41,22,29.96,29.89,7,2,12,0.00
2012-8-8,95,81,47,54,48,43,87,37,20,29.91,29.82,7,1,11,0.00
2012-8-9,98,83,50,56,49,43,82,36,17,29.84,29.74,7,1,12,0.00
2012-8-10,95,82,53,55,50,47,84,39,20,29.75,29.65,6,1,12,0.00
2012-8-11,97,80,50,57,52,46,91,44,23,29.71,29.66,5,1,10,0.00
2012-8-12,88,70,46,53,47,42,90,50,22,29.76,29.70,5,1,12,0.00
2012-8-13,95,81,51,54,49,43,74,36,20,29.75,29.69,7,2,11,0.00
2012-8-14,84,73,55,54,49,43,68,45,26,29.74,29.70,5,1,11,0.00
2012-8-15,78,66,55,57,53,51,93,67,42,29.77,29.74,4,1,10,0.00
2012-8-16,86,74,52,55,52,48,93,51,28,29.86,29.79,6,2,13,0.00
2012-8-17,84,72,48,55,52,47,96,55,33,29.90,29.81,7,1,12,0.00
2012-8-18,90,80,56,54,51,48,79,39,26,29.87,29.79,5,1,12,0.00
2012-8-19,82,75,48,55,52,46,92,48,34,29.86,29.79,6,2,11,0.00
2012-8-20,89,74,46,56,51,44,95,50,27,29.83,29.75,6,2,12,0.00
2012-8-21,86,75,45,56,52,43,96,48,31,29.81,29.74,6,2,11,0.00
2012-8-22,82,67,45,57,53,43,97,65,39,29.83,29.78,5,1,11,0.00
2012-8-23,80,68,46,57,54,45,97,63,42,29.85,29.75,5,2,12,0.00
2012-8-24,83,69,45,57,53,44,98,60,39,29.80,29.75,6,2,13,0.00
2012-8-25,73,62,48,54,51,47,97,70,49,29.78,29.70,7,2,12,0.00
2012-8-26,75,63,51,53,51,49,97,68,44,29.87,29.78,6,1,12,0.00
2012-8-27,82,66,45,57,52,44,98,65,40,29.96,29.87,5,1,10,0.00
2012-8-28,88,76,50,55,50,43,96,45,23,29.94,29.85,7,1,14,0.00
2012-8-29,93,80,45,51,47,41,95,36,18,29.84,29.72,6,1,14,0.00
2012-8-30,85,71,48,52,48,40,77,46,27,29.72,29.67,5,1,12,0.00
2012-8-31,69,59,50,54,51,48,94,75,56,29.83,29.76,5,2,12,0.00
2012-9-1,78,65,49,56,53,48,97,67,45,29.94,29.87,5,1,10,0.00
2012-9-2,88,74,44,54,46,34,98,43,16,29.89,29.81,5,1,9,0.00
2012-9-3,91,76,46,49,45,39,82,38,17,29.88,29.82,5,1,11,0.00
2012-9-4,85,70,43,53,49,39,87,51,31,29.91,29.86,6,2,11,0.00
2012-9-5,77,63,44,54,50,43,97,66,45,29.89,29.83,6,1,17,0.00
2012-9-6,78,65,47,51,49,46,98,60,35,29.89,29.86,4,1,13,0.00
2012-9-7,81,66,45,51,47,41,96,57,24,30.00,29.91,5,1,9,0.00
2012-9-8,79,67,44,53,49,41,90,55,35,29.97,29.85,6,2,12,0.00
2012-9-9,84,69,40,51,46,38,97,49,26,29.90,29.78,6,1,10,0.00
2012-9-10,87,72,43,53,47,41,97,46,23,29.83,29.73,5,2,12,0.00
2012-9-11,85,69,45,55,51,41,90,56,35,29.81,29.77,6,1,11,0.00
2012-9-12,81,67,43,55,51,42,97,61,33,29.98,29.90,6,2,10,0.00
2012-9-14,68,59,49,55,51,47,94,75,59,30.00,29.92,2,0,7,0.00
2012-9-15,85,73,53,55,47,39,63,41,26,30.00,29.91,5,1,11,0.00
2012-9-16,83,71,62,49,47,45,57,44,27,29.88,29.87,1,0,5,0.00
2012-9-17,69,61,54,49,48,47,78,65,49,29.92,29.89,4,2,11,0.00
2012-9-18,79,62,47,52,49,46,96,68,32,30.01,29.92,5,1,10,0.00
2012-9-20,76,56,40,51,46,39,98,73,40,29.97,29.94,3,0,8,0.00
2012-9-21,86,69,41,50,44,39,97,47,22,29.90,29.79,5,1,10,0.00
2012-9-22,89,73,42,48,45,39,93,44,22,29.84,29.78,6,1,11,0.00
2012-9-23,79,78,76,45,45,44,32,31,30,29.84,29.83,4,2,8,0.00
2012-9-24,82,71,47,52,49,46,96,50,29,29.87,29.78,5,1,10,0.00
2012-9-25,79,61,47,52,48,44,90,67,39,29.83,29.79,2,0,9,0.00
2012-9-26,81,74,61,56,55,52,72,53,42,29.77,29.74,3,1,7,0.00
2012-9-27,93,76,45,57,53,44,97,52,25,29.83,29.75,4,1,10,0.00
2012-9-28,73,63,46,53,50,44,94,67,49,29.86,29.78,6,2,12,0.00
2012-9-29,67,67,67,50,50,50,55,55,55,29.90,29.90,0,0,0,0.00
2012-9-30,95,69,46,47,41,38,75,44,15,29.97,29.91,5,1,11,0.00
2012-10-2,101,90,70,44,40,38,33,19,12,29.74,29.72,4,1,8,0.00
2012-10-3,91,75,55,54,44,38,66,37,18,29.84,29.75,6,1,12,0.00
2012-10-4,68,60,55,55,53,52,92,79,60,30.04,29.97,3,1,10,0.00
2012-10-5,68,59,47,54,51,45,98,75,59,30.05,30.01,5,1,9,0.00
2012-10-6,72,62,43,53,51,42,98,69,48,29.97,29.87,5,1,11,0.00
2012-10-7,75,61,42,54,49,41,98,69,46,29.92,29.84,4,1,12,0.01
2012-10-8,70,59,40,52,48,39,98,70,50,29.94,29.89,5,1,13,0.00
2012-10-9,72,61,43,51,48,42,98,65,44,29.94,29.85,4,1,11,0.00
2012-10-10,76,64,41,51,48,40,98,60,38,29.87,29.77,5,1,12,0.00
2012-10-11,55,53,51,51,50,49,94,88,83,29.82,29.77,3,1,11,0.01
2012-10-12,60,56,51,51,49,48,92,78,67,30.10,29.91,4,0,7,0.00
2012-10-13,75,60,42,58,51,41,98,76,50,30.21,30.08,5,0,9,0.00
2012-10-14,79,68,46,59,56,45,98,67,45,30.12,29.99,5,1,8,0.00
2012-10-15,86,70,47,60,53,46,98,61,28,30.01,29.88,5,1,10,0.00
2012-10-16,87,76,62,64,60,55,91,60,39,29.92,29.79,6,1,12,0.00
2012-10-17,93,76,43,48,36,26,92,33,10,29.83,29.73,4,0,8,0.00
2012-10-18,90,75,49,55,43,30,68,35,15,29.92,29.82,5,1,12,0.00
2012-10-19,77,67,57,57,55,54,90,69,46,29.98,29.84,3,1,8,0.00
2012-10-20,77,60,44,55,47,34,99,69,22,29.80,29.69,3,1,8,0.00
2012-10-21,68,53,38,41,36,30,91,59,25,29.82,29.74,5,1,12,0.00
2012-10-22,58,52,49,51,48,44,97,86,64,29.77,29.62,3,0,19,0.10
2012-10-23,59,50,39,50,43,38,99,79,50,29.95,29.88,3,0,10,0.00
2012-10-24,62,54,48,51,47,45,98,80,54,30.07,29.93,4,1,12,0.01
2012-10-25,67,59,48,51,47,43,98,67,41,30.18,30.12,3,0,11,0.00
2012-10-26,77,62,39,54,44,35,99,60,25,30.15,30.01,5,0,8,0.00
2012-10-27,83,67,49,59,54,48,99,69,37,30.00,29.88,3,0,8,0.00
2012-10-28,81,67,50,64,55,49,99,70,39,29.91,29.86,6,1,11,0.01
2012-10-29,79,62,45,59,54,44,99,77,47,30.02,29.95,3,0,6,0.00
2012-10-30,71,59,43,57,52,42,99,80,55,29.98,29.87,3,0,10,0.00
2012-10-31,57,56,52,56,55,51,98,96,94,29.89,29.87,1,0,7,0.80
2012-11-1,68,59,49,59,55,47,99,86,59,29.95,29.91,3,0,7,0.00
2012-11-2,66,56,41,55,50,40,99,82,60,30.00,29.94,3,0,8,0.01
2012-11-3,74,62,47,57,48,-100,99,73,50,30.16,30.02,1,0,7,0.00
2012-11-4,79,65,49,61,55,48,99,76,44,30.25,30.17,2,0,4,0.00
2012-11-5,82,66,51,62,57,50,98,75,45,30.19,30.09,2,0,5,0.00
2012-11-6,80,66,50,59,55,47,93,69,46,30.13,30.04,3,1,7,0.00
2012-11-7,62,54,43,55,51,42,98,88,74,30.08,29.96,4,1,11,0.00
2012-11-8,53,48,42,49,42,37,92,80,66,29.95,29.90,3,1,8,0.06
2012-11-9,56,45,31,41,37,30,98,76,48,29.97,29.91,2,1,7,0.01
2012-11-10,58,48,31,42,35,30,98,65,37,30.19,30.06,3,1,7,0.00
2012-11-11,57,47,31,43,39,30,98,74,50,30.40,30.35,3,1,7,0.00
2012-11-12,62,51,36,43,38,34,93,64,40,30.40,30.29,2,1,5,0.00
2012-11-13,67,56,40,52,45,37,93,68,49,30.26,30.12,2,1,4,0.00
2012-11-14,74,58,42,53,47,-100,98,73,43,30.15,30.06,3,0,8,0.00
2012-11-15,69,56,43,55,47,41,98,74,42,30.05,29.98,4,1,13,0.00
2012-11-16,57,54,52,53,52,49,97,90,83,30.02,29.92,4,0,10,0.24
2012-11-17,58,55,54,56,54,51,98,95,82,29.93,29.82,6,2,14,2.06
2012-11-18,55,50,37,50,46,36,99,86,67,30.16,30.09,4,1,8,0.35
2012-11-19,59,57,53,52,50,46,86,78,69,30.25,30.19,5,2,12,0.00
2012-11-20,57,56,55,56,56,54,98,97,97,30.12,30.00,6,3,18,1.56
2012-11-21,59,52,43,55,49,42,98,90,74,30.22,30.10,1,0,5,0.91
2012-11-22,63,51,39,54,47,39,99,85,56,30.29,30.21,2,0,5,0.05
2012-11-23,67,54,39,54,48,39,99,82,54,30.29,30.21,2,0,6,0.00
2012-11-24,69,55,40,53,47,39,99,77,44,30.21,30.08,3,0,6,0.00
2012-11-25,68,56,41,56,50,40,99,82,59,30.05,29.96,2,0,5,0.00
2012-11-26,65,54,43,56,50,42,99,87,66,30.09,30.03,2,0,5,0.00
2012-11-27,57,54,47,52,49,47,99,85,75,30.14,30.02,4,1,10,0.00
2012-11-28,55,53,51,54,52,49,97,94,89,30.04,29.83,6,2,21,1.62
2012-11-29,57,55,53,56,53,51,97,93,83,30.03,29.87,6,3,17,0.78
2012-11-30,57,55,53,57,54,52,99,98,97,29.89,29.82,9,4,19,5.17
2012-12-2,57,49,42,53,47,41,98,92,82,30.05,29.90,2,1,7,2.91
2012-12-3,59,51,37,52,48,37,100,91,75,30.20,30.14,3,0,8,0.01
2012-12-4,55,53,49,52,51,48,98,92,82,30.24,30.16,2,0,7,0.11
2012-12-5,59,57,55,58,57,55,100,99,97,30.17,30.11,2,0,6,0.88
2012-12-6,60,51,44,54,49,43,98,93,76,30.15,30.09,2,1,6,0.01
2012-12-7,60,48,35,49,44,35,100,86,57,30.15,30.08,2,0,4,0.00
2012-12-8,58,48,35,49,43,35,99,85,58,30.13,30.05,2,0,3,0.00
2012-12-9,66,57,38,49,44,37,97,64,44,30.20,30.13,327,1,327,0.00
2012-12-10,70,55,40,53,47,39,98,78,51,30.24,30.13,2,1,6,0.00
2012-12-11,59,49,40,51,46,39,99,89,70,30.05,29.86,6,2,13,0.00
2012-12-12,52,43,35,45,40,34,99,88,70,29.88,29.84,2,0,7,0.06
2012-12-13,54,42,29,43,35,29,99,78,48,29.94,29.86,3,1,8,0.00
2012-12-14,52,43,35,42,38,34,99,83,57,29.93,29.83,3,1,10,0.00
2012-12-15,44,40,32,43,40,32,99,97,94,30.03,29.94,4,1,11,0.11
2012-12-16,48,46,42,48,46,42,99,98,97,30.05,29.96,3,1,8,0.24
2012-12-17,56,49,40,51,46,39,98,91,77,30.01,29.92,3,1,8,0.70
2012-12-18,48,39,29,36,32,28,98,78,57,30.10,29.98,4,1,12,0.00
2012-12-19,52,41,26,36,29,25,96,67,36,30.26,30.17,3,1,7,0.00
2012-12-20,51,48,43,45,38,28,92,69,54,30.09,29.93,7,3,21,0.16
2012-12-21,50,48,46,49,47,45,99,97,95,29.86,29.81,6,2,19,2.79
2012-12-22,51,47,43,47,44,42,99,91,80,29.95,29.80,4,1,14,0.99
2012-12-23,55,51,47,54,50,46,99,97,95,29.88,29.77,11,3,31,2.31
2012-12-24,52,44,35,48,43,35,100,96,83,30.16,30.11,1,0,3,0.01
2012-12-25,43,42,39,43,41,39,99,98,96,30.06,29.79,7,1,16,0.59
2012-12-26,52,46,40,46,43,40,99,88,71,29.99,29.85,5,2,15,0.36
2012-12-27,55,45,35,44,38,34,97,79,55,30.11,30.06,2,1,5,0.00
2012-12-28,47,40,33,38,36,32,98,86,67,30.11,30.01,3,0,8,0.00
2012-12-29,55,46,37,42,38,35,94,75,54,30.03,29.97,2,1,6,0.02
2012-12-30,55,43,31,43,36,31,99,78,50,30.09,30.01,3,1,6,0.00
2012-12-31,53,42,29,40,34,26,97,76,47,30.25,30.18,3,1,7,0.00
2013-1-1,56,46,33,37,31,27,96,58,33,30.23,30.16,3,1,12,0.00